Skip Navigation Links
NOAA logo - Click to go to the NOAA homepage
NOAA's National Weather Service
Alaska Aviation Weather Unit
  NWS logo - Click to go to the NWS homepage
Left Navbar Graphic     00 AKDT = 08 GMT

   
NOAA is celebrating 200 years of science, service, and stewardship. Visit the NOAA 200th celebration Web site to learn more.
USA.gov is the U.S. Government's official Web portal to all Federal, state and local government Web resources and services.
Facebook
NWS on Facebook

Important Change Regarding the AAWU Web Presence

 

Over the last several months, the AAWU has been working to navigate its webpages to a nationally supported server. Security, as well as other needs, have necessitated the change.  We have been given an extension for the site changeover while we diligently work at addressing feedback received. As of July 14, 2017, aawu.arh.noaa.gov will be discontinued. The new AAWU web address is weather.gov/aawu. It is now live and will run in-parallel with the old site until it is discontinued on July 14, 2017. Please continue to send any feedback or questions regarding the new webpages to nws.ar.aawu.webauthors@noaa.gov.  Thank you for your patience during this time of transition.
AAWU Home :: Display TAF Add Bookmark
TAF PAPG 240526Z 2406/2506  VRB03KT 6SM -RA BR FEW006 SCT012 OVC025
     FM240900 00000KT 3SM -RA BR BKN006 OVC015
     FM241400 VRB04KT 2SM BCFG VCSH OVC006
     FM241900 VRB04KT 6SM BR FEW006 OVC012
     FM250200 VRB04KT 6SM BR FEW003 OVC025
      AMD LTD TO CLD VIS AND WIND 2406/2415=

2586
FTAK31 PAJN 240526
TAFAWG
TAF

SPECI PAPG 240238Z 00000KT 10SM -RA BKN016 OVC021 13/12 A2979 RMK AO2 P0001= METAR PAPG 240256Z 26003KT 10SM -RA OVC016 12/12 A2979 RMK AO2 SLP090 P0001 60002 T01220122 56011= SPECI PAPG 240303Z 25003KT 5SM -RA BR SCT006 OVC016 12/12 A2979 RMK AO2 P0000= SPECI PAPG 240349Z 00000KT 5SM -RA BR SCT006 OVC016 12/12 A2977 RMK AO2 P0002= SPECI PAPG 240350Z 00000KT 5SM -RA BR SCT006 BKN019 OVC032 13/12 A2977 RMK AO2 P0002= METAR PAPG 240356Z 26003KT 5SM -RA BR SCT006 BKN019 OVC032 13/12 A2977 RMK AO2 SLP085 P0002 T01280122= SPECI PAPG 240450Z 31003KT 7SM -RA SCT012 BKN021 OVC035 13/12 A2977 RMK AO2 P0003= METAR PAPG 240456Z 28003KT 7SM -RA SCT012 BKN021 OVC035 12/12 A2977 RMK AO2 SLP084 P0003 T01220122= SPECI PAPG 240549Z 24003KT 7SM -RA BKN016 OVC022 12/12 A2976 RMK AO2 P0003= METAR PAPG 240556Z 00000KT 7SM -RA OVC016 12/12 A2976 RMK AO2 SLP080 P0004 60011 T01220122 10133 20122 56010= METAR PAPG 240656Z AUTO 26003KT 5SM -RA BR OVC016 12/12 A2976 RMK AO2 SLP081 P0004 T01220117= METAR PAPG 240756Z AUTO 00000KT 4SM -RA BR BKN019 OVC025 12/12 A2976 RMK AO2 SLP082 P0004 T01220122=
 Alaska TAF Map

NOAA's National Weather Service
Alaska Aviation Weather Unit
6930 Sand Lake Road
Anchorage, AK 99502-1845
Disclaimer
Credits
Glossary
Privacy Policy
About Us
Career Opportunities
Contact AAWU Internet Services Site last modified: April, 17th 2012